Terminal Aerodrome Forecast
Issued by NWS Burlington, VT

Home | Current Version | Previous Version | Text Only | Print | Product List | Glossary On
Versions: 1 2 3 4 5 6 7 8 9 10 11 12
923
FTUS41 KBTV 290538
TAFBTV
TAF
KBTV 290538Z 2906/3006 15004KT P6SM SCT040 SCT250
     FM291400 02005KT P6SM SCT040 SCT250
     FM291800 01010KT P6SM FEW040 SCT250
     FM300000 05004KT P6SM SCT150 BKN200=

USA.gov is the U.S. government's official web portal to all federal, state and local government web resources and services.